Weather at Yerbogachen Airport

Public forecast

Using degrees Celsius for public forecast. Weather courtesy of forecast.io.

Closest aviation weather report (METAR) to Yerbogachen Airport

Closest report is Mirny Airport, 185.9 nm (344.3 km) ENE. Retrieved 2021/06/21 10:00 UTC (2 minutes ago):

UERR 211000Z 17005MPS 9999 SCT026 30/08 Q1003 R25/CLRD60 NOSIG RMK QFE721/0962

Closest aviation forecast (TAF) to Yerbogachen Airport

Closest forecast is Mirny Airport, 185.9 nm (344.3 km) ENE. Retrieved 2021/06/21 09:22 UTC (40 minutes ago):

TAF UERR 210800Z 2109/2209 20004G09MPS 9999 BKN023CB TX32/2206Z TN15/2118Z